Metar Cercanos

 

LEPA - Palma De Mallorc, Spain
Distance from station: ONO 38km
Actualización: 20/02/2018 10:30
Parcialmente nuboso
Parcialmente nuboso
 Viento del varies
Viento: varies 2 km/h
Temperatura: 14°C
Rocío: 11°C
Humedad: 82%
Barómetro: 1012 hPa
Clouds: Parcialmente nuboso
Visibility: 10 km
Cloud details: Few Clouds 610 m
Parcialmente nuboso 1067 m
2018/02/20 09:30 LEPA 200930Z VRB01KT 9999 FEW020 SCT035 14/11 Q1012 NOSIG
LEMH - Mahon/Menorca Is, Spain
Distance from station: ENE 105km
Actualización: 20/02/2018 10:30
Lluvia débil, Muy nuboso
Lluvia débil, Muy nuboso
 Viento del O
Viento: O 7 km/h
Temperatura: 10°C
Sensación frio: 9°C
Rocío: 9°C
Humedad: 94%
Barómetro: 1012 hPa
Resumen: Lluvia débil
Clouds: Muy nuboso
Visibility: 10 km
Cloud details: Muy nuboso 549 m
2018/02/20 09:30 LEMH 200930Z 28004KT 250V320 9999 -RA BKN018 10/09 Q1012
 
LEIB - Ibiza/Es Codola, Spain
Distance from station: OSO 165km
Actualización: 20/02/2018 10:30
Few Clouds
Few Clouds
 Viento del O
Viento: O 9 km/h
Temperatura: 15°C
Rocío: 10°C
Humedad: 72%
Barómetro: 1013 hPa
Clouds: Few Clouds
Visibility: 10 km
Cloud details: Few Clouds 610 m
2018/02/20 09:30 LEIB 200930Z 28005KT 250V310 9999 FEW020 15/10 Q1013 NOSIG
LEBL - Barcelona Airpor, Spain
Distance from station: NNO 225km
Actualización: 20/02/2018 10:30
Few Clouds
Few Clouds
 Viento del NO
Viento: NO 9 km/h
Temperatura: 12°C
Rocío: 8°C
Humedad: 77%
Barómetro: 1012 hPa
Clouds: Few Clouds
Visibility: 9 km
Cloud details: Few Clouds 1067 m
2018/02/20 09:30 LEBL 200930Z 32005KT 260V010 9000 FEW035 12/08 Q1012 NOSIG
 
LEVC - Valencia (civ/Mi, Spain
Distance from station: NO 188km
Actualización: 20/02/2018 10:30
Few Clouds
Few Clouds
 Viento del ONO
Viento: ONO 9 km/h
Temperatura: 17°C
Rocío: 6°C
Humedad: 49%
Barómetro: 1013 hPa
Clouds: Few Clouds
Visibility: 10 km
Cloud details: Few Clouds 762 m
2018/02/20 09:30 LEVC 200930Z 29005KT 260V330 9999 FEW025 17/06 Q1013 NOSIG
LEGE - Gerona/Costa Bra, Spain
Distance from station: N 276km
Actualización: 20/02/2018 10:30
Parcialmente nuboso
Parcialmente nuboso
 Viento del calm
Viento: Calma
Temperatura: 9°C
Rocío: 9°C
Humedad: 100%
Barómetro: 1011 hPa
Clouds: Parcialmente nuboso
Visibility: 7 km
Cloud details: Few Clouds 2438 m
Parcialmente nuboso 2743 m
2018/02/20 09:30 LEGE 200930Z 00000KT 7000 FEW080 SCT090 09/09 Q1011
 
LEAL - Alicante/El Alte, Spain
Distance from station: OSO 344km
Actualización: 20/02/2018 10:30
Despejado
Despejado
 Viento del ONO
Viento: ONO 19 km/h
Temperatura: 15°C
Rocío: 6°C
Humedad: 55%
Barómetro: 1014 hPa
Resumen: Despejado
Visibility: greater than 10 km
2018/02/20 09:30 LEAL 200930Z 29010KT CAVOK 15/06 Q1014 NOSIG
LEAM - Almeria Airport, Spain
Distance from station: SSO 56km
Actualización: 20/02/2018 10:30
Despejado
Despejado
 Viento del SSO
Viento: SSO 9 km/h
Temperatura: 13°C
Rocío: 8°C
Humedad: 72%
Barómetro: 1016 hPa
Resumen: Despejado
Visibility: greater than 10 km
2018/02/20 09:30 LEAM 200930Z 20005KT 170V260 CAVOK 13/08 Q1016
 
LEZG - Zaragoza (mil/Ci, Spain
Distance from station: NO 431km
Actualización: 20/02/2018 10:30
Parcialmente nuboso
Parcialmente nuboso
 Viento del ONO
Viento: ONO 48 km/h
Temperatura: 13°C
Rocío: 7°C
Humedad: 67%
Barómetro: 1016 hPa
Clouds: Parcialmente nuboso
Visibility: 10 km
Cloud details: Parcialmente nuboso 1219 m
2018/02/20 09:30 LEZG 200930Z 30026KT 9999 SCT040 13/07 Q1016
LEMD - Madrid/Barajas, Spain
Distance from station: ONO 234km
Actualización: 20/02/2018 10:30
Despejado
Despejado
 Viento del N
Viento: N 24 km/h
Temperatura: 12°C
Rocío: 3°C
Humedad: 54%
Barómetro: 1018 hPa
Resumen: Despejado
Visibility: greater than 10 km
2018/02/20 09:30 LEMD 200930Z 36013KT CAVOK 12/03 Q1018 NOSIG
 
LEGR - Granada Airport, Spain
Distance from station: OSO 62km
Actualización: 20/02/2018 10:30
Few Clouds
Few Clouds
 Viento del calm
Viento: Calma
Temperatura: 7°C
Rocío: 4°C
Humedad: 81%
Barómetro: 1018 hPa
Clouds: Few Clouds
Visibility: 10 km
Cloud details: Few Clouds 1524 m
2018/02/20 09:30 LEGR 200930Z 00000KT 9999 FEW050 07/04 Q1018
LEMG - Malaga (civ/Mil), Spain
Distance from station: OSO 227km
Actualización: 20/02/2018 10:30
Despejado
Despejado
 Viento del ONO
Viento: ONO 7 km/h
Temperatura: 12°C
Rocío: 9°C
Humedad: 82%
Barómetro: 1017 hPa
Resumen: Despejado
Visibility: greater than 10 km
2018/02/20 09:30 LEMG 200930Z 30004KT CAVOK 12/09 Q1017 NOSIG
 
LEZL - Sevilla (civ/Mil, Spain
Distance from station: S 318km
Actualización: 20/02/2018 10:30
Despejado
Despejado
 Viento del NE
Viento: NE 6 km/h
Temperatura: 13°C
Rocío: 5°C
Humedad: 59%
Barómetro: 1018 hPa
Resumen: Despejado
Visibility: greater than 10 km
2018/02/20 09:30 LEZL 200930Z 05003KT 010V080 CAVOK 13/05 Q1018 NOSIG
LEVT - Vitoria, Spain
Distance from station: NO 226km
Actualización: 20/02/2018 10:30
Lluvia débil, Muy nuboso
Lluvia débil, Muy nuboso
 Viento del NO
Viento: NO 19 km/h
Temperatura: 8°C
Sensación frio: 4°C
Rocío: 6°C
Humedad: 87%
Barómetro: 1021 hPa
Resumen: Lluvia débil
Clouds: Muy nuboso
Visibility: 7 km
Cloud details: Few Clouds 457 m
Parcialmente nuboso 792 m
Muy nuboso 1219 m
2018/02/20 09:30 LEVT 200930Z 32010KT 290V350 7000 -RA FEW015 SCT026 BKN040 08/06 Q1021
 
LEBB - Bilbao/Sondica, Spain
Distance from station: NNO 235km
Actualización: 20/02/2018 10:30
Lluvia débil, Muy nuboso
Lluvia débil, Muy nuboso
 Viento del NNO
Viento: NNO 20 km/h
Temperatura: 11°C
Rocío: 10°C
Humedad: 94%
Barómetro: 1022 hPa
Resumen: Lluvia débil
Clouds: Muy nuboso
Visibility: 8 km
Cloud details: Parcialmente nuboso 549 m
Parcialmente nuboso 914 m
Muy nuboso 1372 m
2018/02/20 09:30 LEBB 200930Z 33011KT 8000 -RA SCT018 SCT030 BKN045 11/10 Q1022 TEMPO RA
LESO - San Sebastian/Fu, Spain
Distance from station: N 231km
Actualización: 20/02/2018 10:30
Lluvia débil, Muy nuboso
Lluvia débil, Muy nuboso
 Viento del NO
Viento: NO 13 km/h
Temperatura: 11°C
Rocío: 10°C
Humedad: 94%
Barómetro: 1021 hPa
Resumen: Lluvia débil
Clouds: Muy nuboso
Visibility: 7 km
Cloud details: Few Clouds 396 m
Parcialmente nuboso 610 m
Muy nuboso 1524 m
2018/02/20 09:30 LESO 200930Z 32007KT 260V040 7000 -RA FEW013 SCT020 BKN050 11/10 Q1021
 
LEVD - Valladolid(Mil/C, Spain
Distance from station: ONO 239km
Actualización: 20/02/2018 10:30
Despejado
Despejado
 Viento del NNO
Viento: NNO 7 km/h
Temperatura: 5°C
Sensación frio: 3°C
Rocío: 3°C
Humedad: 87%
Barómetro: 1021 hPa
Resumen: Despejado
Visibility: greater than 10 km
2018/02/20 09:30 LEVD 200930Z 34004KT 320V020 CAVOK 05/03 Q1021
LESA - Salamanca (civ/M, Spain
Distance from station: ONO 349km
Actualización: 20/02/2018 10:30
Despejado
Despejado
 Viento del ENE
Viento: ENE 6 km/h
Temperatura: 7°C
Rocío: 3°C
Humedad: 76%
Barómetro: 1021 hPa
Resumen: Despejado
Visibility: greater than 10 km
2018/02/20 09:30 LESA 200930Z 07003KT 030V110 CAVOK 07/03 Q1021
 
LEXJ - Santander/Paraya, Spain
Distance from station: NNO 247km
Actualización: 20/02/2018 10:30
Muy nuboso
Muy nuboso
 Viento del NNO
Viento: NNO 17 km/h
Temperatura: 12°C
Rocío: 10°C
Humedad: 88%
Barómetro: 1024 hPa
Clouds: Muy nuboso
Visibility: 10 km
Cloud details: Parcialmente nuboso 488 m
Muy nuboso 1951 m
2018/02/20 09:30 LEXJ 200930Z 34009KT 300V020 9999 SCT016 BKN064 12/10 Q1024
LEAS - Asturias/Aviles, Spain
Distance from station: NO 214km
Actualización: 20/02/2018 10:30
Muy nuboso
Muy nuboso
 Viento del OSO
Viento: OSO 9 km/h
Temperatura: 9°C
Sensación frio: 7°C
Rocío: 8°C
Humedad: 94%
Barómetro: 1026 hPa
Clouds: Muy nuboso
Visibility: 10 km
Cloud details: Few Clouds 457 m
Parcialmente nuboso 762 m
Muy nuboso 1676 m
2018/02/20 09:30 LEAS 200930Z 24005KT 9999 FEW015 SCT025 BKN055 09/08 Q1026 NOSIG
 
LECO - La Coruna/Alvedr, Spain
Distance from station: ONO 222km
Actualización: 20/02/2018 10:30
Parcialmente nuboso
Parcialmente nuboso
 Viento del varies
Viento: varies 4 km/h
Temperatura: 11°C
Rocío: 9°C
Humedad: 88%
Barómetro: 1025 hPa
Clouds: Parcialmente nuboso
Visibility: 10 km
Cloud details: Parcialmente nuboso 1463 m
2018/02/20 09:30 LECO 200930Z VRB02KT 9999 SCT048 11/09 Q1025 NOSIG
LEVX - Vigo/Peinador, Spain
Distance from station: O 214km
Actualización: 20/02/2018 10:30
Despejado
Despejado
 Viento del NE
Viento: NE 11 km/h
Temperatura: 11°C
Rocío: 6°C
Humedad: 72%
Barómetro: 1023 hPa
Resumen: Despejado
Visibility: greater than 10 km
2018/02/20 09:30 LEVX 200930Z 05006KT 320V120 CAVOK 11/06 Q1023 NOSIG